createdAt,value
2023-02-26T00:01:44.357Z,14.53
2023-02-26T00:04:12.784Z,14.55
2023-02-26T00:06:54.018Z,14.73
2023-02-26T00:09:24.967Z,14.81
2023-02-26T00:11:53.180Z,14.70
2023-02-26T00:14:21.540Z,14.48
2023-02-26T00:17:18.511Z,14.46
2023-02-26T00:19:47.184Z,14.29
2023-02-26T00:22:15.455Z,14.44
2023-02-26T00:24:43.545Z,14.46
2023-02-26T00:27:12.665Z,14.45
2023-02-26T00:29:41.727Z,14.29
2023-02-26T00:32:10.795Z,14.32
2023-02-26T00:34:40.703Z,14.25
2023-02-26T00:37:13.994Z,14.42
2023-02-26T00:39:45.079Z,14.48
2023-02-26T00:42:14.535Z,14.29
2023-02-26T00:44:43.348Z,14.37
2023-02-26T00:47:30.683Z,14.34
2023-02-26T00:50:22.246Z,14.44
2023-02-26T00:53:27.396Z,14.47
2023-02-26T00:55:55.440Z,14.41
2023-02-26T00:58:23.292Z,14.44
2023-02-26T01:00:51.407Z,14.66
2023-02-26T01:03:19.456Z,14.60
2023-02-26T01:05:47.735Z,14.50
2023-02-26T01:08:36.275Z,14.43
2023-02-26T01:11:04.946Z,14.24
2023-02-26T01:13:33.084Z,14.29
2023-02-26T01:16:09.138Z,14.39
2023-02-26T01:19:13.628Z,14.57
2023-02-26T01:21:47.627Z,14.22
2023-02-26T01:24:19.611Z,14.40
2023-02-26T01:26:50.135Z,14.44
2023-02-26T01:29:18.266Z,14.34
2023-02-26T01:32:08.761Z,14.14
2023-02-26T01:34:49.070Z,14.27
2023-02-26T01:37:28.735Z,14.18
2023-02-26T01:40:28.366Z,14.22
2023-02-26T01:43:10.478Z,14.18
2023-02-26T01:46:18.643Z,14.33
2023-02-26T01:48:58.984Z,14.38
2023-02-26T01:51:45.222Z,14.48
2023-02-26T01:54:14.669Z,14.38
2023-02-26T01:56:45.831Z,14.50
2023-02-26T01:59:17.149Z,14.53
2023-02-26T02:01:45.581Z,14.47
2023-02-26T02:04:16.353Z,14.31
2023-02-26T02:06:45.113Z,14.44
2023-02-26T02:09:14.151Z,14.40
2023-02-26T02:12:19.337Z,14.35
2023-02-26T02:15:13.966Z,14.54
2023-02-26T02:17:51.158Z,14.49
2023-02-26T02:20:29.457Z,14.55
2023-02-26T02:23:20.461Z,14.48
2023-02-26T02:26:16.420Z,14.50
2023-02-26T02:28:50.266Z,14.76
2023-02-26T02:31:25.519Z,14.73
2023-02-26T02:33:56.992Z,13.93
2023-02-26T02:36:52.061Z,13.51
2023-02-26T02:39:28.358Z,12.87
2023-02-26T02:42:24.233Z,12.21
2023-02-26T02:44:59.261Z,12.31
2023-02-26T02:47:31.624Z,12.44
2023-02-26T02:50:12.724Z,12.35
2023-02-26T02:53:04.418Z,12.15
2023-02-26T02:55:47.927Z,11.95
2023-02-26T02:58:22.627Z,11.99
2023-02-26T03:00:55.160Z,11.82
2023-02-26T03:03:38.739Z,11.86
2023-02-26T03:06:06.966Z,11.98
2023-02-26T03:08:40.635Z,11.95
2023-02-26T03:11:10.465Z,11.62
2023-02-26T03:13:41.501Z,11.72
2023-02-26T03:16:43.063Z,11.48
2023-02-26T03:19:24.181Z,11.49
2023-02-26T03:22:11.638Z,11.39
2023-02-26T03:25:25.349Z,11.55
2023-02-26T03:27:57.204Z,11.43
2023-02-26T03:30:42.985Z,11.17
2023-02-26T03:33:27.514Z,11.33
2023-02-26T03:36:01.885Z,11.32
2023-02-26T03:38:52.901Z,11.09
2023-02-26T03:42:04.832Z,11.29
2023-02-26T03:44:49.753Z,11.50
2023-02-26T03:47:17.998Z,11.35
2023-02-26T03:49:59.139Z,11.16
2023-02-26T03:52:33.122Z,11.09
2023-02-26T03:55:17.975Z,10.84
2023-02-26T03:58:12.333Z,10.60
2023-02-26T04:00:57.531Z,10.96
2023-02-26T04:03:42.206Z,10.96
2023-02-26T04:06:10.863Z,10.90
2023-02-26T04:08:41.425Z,11.18
2023-02-26T04:11:12.706Z,10.88
2023-02-26T04:13:40.964Z,10.95
2023-02-26T04:16:08.907Z,10.88
2023-02-26T04:18:37.394Z,10.77
2023-02-26T04:21:07.442Z,10.30
2023-02-26T04:23:35.592Z,10.72
2023-02-26T04:26:03.494Z,10.49
2023-02-26T04:28:32.650Z,10.23
2023-02-26T04:31:00.572Z,10.16
2023-02-26T04:33:29.006Z,10.34
2023-02-26T04:35:56.844Z,10.32
2023-02-26T04:38:26.875Z,10.33
2023-02-26T04:40:55.558Z,10.31
2023-02-26T04:43:25.019Z,10.22
2023-02-26T04:46:07.687Z,10.27
2023-02-26T04:48:37.717Z,10.33
2023-02-26T04:51:05.937Z,10.56
2023-02-26T04:53:34.626Z,10.56
2023-02-26T04:56:02.470Z,9.96
2023-02-26T04:58:30.731Z,10.19
2023-02-26T05:01:04.839Z,9.91
2023-02-26T05:03:32.961Z,9.98
2023-02-26T05:06:00.770Z,10.03
2023-02-26T05:08:29.086Z,10.05
2023-02-26T05:10:57.561Z,10.28
2023-02-26T05:13:25.439Z,10.42
2023-02-26T05:15:55.115Z,10.35
2023-02-26T05:18:24.789Z,10.14
2023-02-26T05:20:55.294Z,10.03
2023-02-26T05:23:23.652Z,10.03
2023-02-26T05:25:51.835Z,10.19
2023-02-26T05:28:19.828Z,10.22
2023-02-26T05:30:47.993Z,10.51
2023-02-26T05:33:15.845Z,10.27
2023-02-26T05:35:44.150Z,10.14
2023-02-26T05:38:12.121Z,9.95
2023-02-26T05:40:40.302Z,10.13
2023-02-26T05:43:08.312Z,9.96
2023-02-26T05:45:37.021Z,9.76
2023-02-26T05:48:05.016Z,9.81
2023-02-26T05:50:33.392Z,9.68
2023-02-26T05:53:01.192Z,9.87
2023-02-26T05:55:29.550Z,9.60
2023-02-26T05:57:57.389Z,9.81
2023-02-26T06:00:25.646Z,9.99
2023-02-26T06:02:53.584Z,9.95
2023-02-26T06:05:21.748Z,9.84
2023-02-26T06:07:49.570Z,10.05
2023-02-26T06:10:17.982Z,9.68
2023-02-26T06:12:45.877Z,9.72
2023-02-26T06:15:13.992Z,10.15
2023-02-26T06:17:42.148Z,9.71
2023-02-26T06:20:11.367Z,9.58
2023-02-26T06:22:39.584Z,9.76
2023-02-26T06:25:08.367Z,9.74
2023-02-26T06:27:36.273Z,9.58
2023-02-26T06:30:05.570Z,9.58
2023-02-26T06:32:34.000Z,9.68
2023-02-26T06:35:02.252Z,9.59
2023-02-26T06:37:30.142Z,9.57
2023-02-26T06:39:58.291Z,9.56
2023-02-26T06:42:26.293Z,9.61
2023-02-26T06:44:54.541Z,9.38
2023-02-26T06:47:23.038Z,9.58
2023-02-26T06:49:51.547Z,9.45
2023-02-26T06:52:20.017Z,9.39
2023-02-26T06:54:48.118Z,9.82
2023-02-26T06:57:15.910Z,9.55
2023-02-26T06:59:44.145Z,9.53
2023-02-26T07:02:22.508Z,9.35
2023-02-26T07:04:50.800Z,9.40
2023-02-26T07:07:18.554Z,9.32
2023-02-26T07:09:46.630Z,9.43
2023-02-26T07:12:14.523Z,9.49
2023-02-26T07:14:46.228Z,9.29
2023-02-26T07:17:21.122Z,9.26
2023-02-26T07:19:51.193Z,9.29
2023-02-26T07:22:21.853Z,9.18
2023-02-26T07:24:51.447Z,9.35
2023-02-26T07:27:19.355Z,9.13
2023-02-26T07:29:47.422Z,9.06
2023-02-26T07:32:15.297Z,9.20
2023-02-26T07:34:43.372Z,9.21
2023-02-26T07:37:11.129Z,9.28
2023-02-26T07:39:39.363Z,9.15
2023-02-26T07:42:07.337Z,9.11
2023-02-26T07:44:35.818Z,9.42
2023-02-26T07:47:04.417Z,9.39
2023-02-26T07:49:34.225Z,9.31
2023-02-26T07:52:02.477Z,9.41
2023-02-26T07:54:30.930Z,9.65
2023-02-26T07:56:58.740Z,9.47
2023-02-26T07:59:26.879Z,9.41
2023-02-26T08:01:55.960Z,9.81
2023-02-26T08:04:24.504Z,9.86
2023-02-26T08:06:54.875Z,9.78
2023-02-26T08:09:23.220Z,9.87
2023-02-26T08:11:51.280Z,9.93
2023-02-26T08:14:19.860Z,10.04
2023-02-26T08:16:47.956Z,10.43
2023-02-26T08:19:16.408Z,10.29
2023-02-26T08:21:44.395Z,10.27
2023-02-26T08:24:13.257Z,10.24
2023-02-26T08:26:41.575Z,10.23
2023-02-26T08:29:10.014Z,10.41
2023-02-26T08:31:38.204Z,10.52
2023-02-26T08:34:06.824Z,10.36
2023-02-26T08:36:34.989Z,10.28
2023-02-26T08:39:03.793Z,10.47
2023-02-26T08:41:32.824Z,10.57
2023-02-26T08:44:01.480Z,10.65
2023-02-26T08:46:29.939Z,10.35
2023-02-26T08:48:58.705Z,10.55
2023-02-26T08:51:27.225Z,10.66
2023-02-26T08:53:57.027Z,10.76
2023-02-26T08:56:25.421Z,10.82
2023-02-26T08:58:53.979Z,10.60
2023-02-26T09:01:22.107Z,10.55
2023-02-26T09:03:50.442Z,10.82
2023-02-26T09:06:18.516Z,11.09
2023-02-26T09:08:47.223Z,10.70
2023-02-26T09:11:15.497Z,11.08
2023-02-26T09:13:43.777Z,11.03
2023-02-26T09:16:11.833Z,11.18
2023-02-26T09:18:40.959Z,11.25
2023-02-26T09:21:09.056Z,11.19
2023-02-26T09:23:37.841Z,11.14
2023-02-26T09:26:06.136Z,11.31
2023-02-26T09:28:35.119Z,11.41
2023-02-26T09:31:03.348Z,11.49
2023-02-26T09:33:31.679Z,11.57
2023-02-26T09:35:59.786Z,11.70
2023-02-26T09:38:28.206Z,11.43
2023-02-26T09:41:06.639Z,11.26
2023-02-26T09:44:12.481Z,11.73
2023-02-26T09:47:02.172Z,11.72
2023-02-26T09:49:34.273Z,11.77
2023-02-26T09:52:29.774Z,11.78
2023-02-26T09:55:06.575Z,12.14
2023-02-26T09:57:41.538Z,11.98
2023-02-26T10:00:31.221Z,12.13
2023-02-26T10:03:30.706Z,12.09
2023-02-26T10:06:23.827Z,12.06
2023-02-26T10:09:06.474Z,12.25
2023-02-26T10:11:53.652Z,12.34
2023-02-26T10:14:42.902Z,12.21
2023-02-26T10:17:29.207Z,12.29
2023-02-26T10:20:04.714Z,12.04
2023-02-26T10:23:07.941Z,12.43
2023-02-26T10:25:47.182Z,12.25
2023-02-26T10:28:41.208Z,12.49
2023-02-26T10:31:22.727Z,12.40
2023-02-26T10:34:27.986Z,12.65
2023-02-26T10:37:04.546Z,12.95
2023-02-26T10:39:54.337Z,12.74
2023-02-26T10:42:26.918Z,12.62
2023-02-26T10:45:04.726Z,12.58
2023-02-26T10:47:51.472Z,12.23
2023-02-26T10:50:22.686Z,12.27
2023-02-26T10:52:52.305Z,12.43
2023-02-26T10:55:26.676Z,12.39
2023-02-26T10:58:15.713Z,12.72
2023-02-26T11:00:51.358Z,12.61
2023-02-26T11:03:24.389Z,12.84
2023-02-26T11:05:52.751Z,12.89
2023-02-26T11:08:31.109Z,12.87
2023-02-26T11:11:05.330Z,12.71
2023-02-26T11:13:35.311Z,12.48
2023-02-26T11:16:16.468Z,12.40
2023-02-26T11:18:49.923Z,12.31
2023-02-26T11:21:27.810Z,12.18
2023-02-26T11:24:08.136Z,12.45
2023-02-26T11:26:39.061Z,12.34
2023-02-26T11:29:07.222Z,11.96
2023-02-26T11:31:35.577Z,11.98
2023-02-26T11:34:06.152Z,12.12
2023-02-26T11:36:37.715Z,12.37
2023-02-26T11:39:09.702Z,12.40
2023-02-26T11:41:39.950Z,12.50
2023-02-26T11:44:42.105Z,12.33
2023-02-26T11:47:18.275Z,12.12
2023-02-26T11:49:52.033Z,12.00
2023-02-26T11:52:28.317Z,12.40
2023-02-26T11:55:02.977Z,12.18
2023-02-26T11:57:33.951Z,12.17
2023-02-26T12:00:17.552Z,12.33
2023-02-26T12:02:47.929Z,12.01
2023-02-26T12:05:18.557Z,12.21
2023-02-26T12:07:49.060Z,11.95
2023-02-26T12:10:29.488Z,11.84
2023-02-26T12:13:35.494Z,11.87
2023-02-26T12:16:20.921Z,12.01
2023-02-26T12:18:57.094Z,12.34
2023-02-26T12:21:43.176Z,12.44
2023-02-26T12:25:08.243Z,12.63
2023-02-26T12:27:36.008Z,12.23
2023-02-26T12:30:30.013Z,12.16
2023-02-26T12:33:06.721Z,12.03
2023-02-26T12:35:53.286Z,12.06
2023-02-26T12:38:29.420Z,12.15
2023-02-26T12:41:09.843Z,12.34
2023-02-26T12:43:49.142Z,12.04
2023-02-26T12:46:29.261Z,12.16
2023-02-26T12:49:21.160Z,11.88
2023-02-26T12:52:04.528Z,11.87
2023-02-26T12:54:53.863Z,11.93
2023-02-26T12:57:38.920Z,12.01
2023-02-26T13:00:35.704Z,11.65
2023-02-26T13:03:30.830Z,11.48
2023-02-26T13:06:20.127Z,11.69
2023-02-26T13:09:25.575Z,11.94
2023-02-26T13:12:29.195Z,11.88
2023-02-26T13:15:00.431Z,11.92
2023-02-26T13:17:55.741Z,11.96
2023-02-26T13:20:29.205Z,12.23
2023-02-26T13:23:02.393Z,12.09
2023-02-26T13:25:55.978Z,11.95
2023-02-26T13:28:42.232Z,11.81
2023-02-26T13:31:27.533Z,11.69
2023-02-26T13:33:59.171Z,11.87
2023-02-26T13:36:29.708Z,11.48
2023-02-26T13:39:05.400Z,11.52
2023-02-26T13:42:18.174Z,11.26
2023-02-26T13:45:04.283Z,11.59
2023-02-26T13:47:35.945Z,11.47
2023-02-26T13:50:25.021Z,11.54
2023-02-26T13:53:06.049Z,11.54
2023-02-26T13:55:36.841Z,11.50
2023-02-26T13:58:23.329Z,11.40
2023-02-26T14:01:05.132Z,11.68
2023-02-26T14:03:50.461Z,11.31
2023-02-26T14:06:26.010Z,11.37
2023-02-26T14:08:57.230Z,11.34
2023-02-26T14:12:00.514Z,11.71
2023-02-26T14:14:41.285Z,11.70
2023-02-26T14:17:09.433Z,11.75
2023-02-26T14:19:52.821Z,11.77
2023-02-26T14:22:26.083Z,11.67
2023-02-26T14:25:13.144Z,11.57
2023-02-26T14:27:44.058Z,11.29
2023-02-26T14:30:12.342Z,11.38
2023-02-26T14:33:10.440Z,11.11
2023-02-26T14:35:51.792Z,11.12
2023-02-26T14:38:31.181Z,11.24
2023-02-26T14:41:23.631Z,11.37
2023-02-26T14:44:01.777Z,11.46
2023-02-26T14:46:30.875Z,11.40
2023-02-26T14:48:58.967Z,11.08
2023-02-26T14:51:58.933Z,11.00
2023-02-26T14:54:49.122Z,11.02
2023-02-26T14:57:20.904Z,11.32
2023-02-26T15:00:18.939Z,11.44
2023-02-26T15:03:15.231Z,11.49
2023-02-26T15:06:02.933Z,11.56
2023-02-26T15:08:40.215Z,11.53
2023-02-26T15:11:41.767Z,11.35
2023-02-26T15:14:29.216Z,10.92
2023-02-26T15:17:25.545Z,11.39
2023-02-26T15:19:56.711Z,10.88
2023-02-26T15:22:40.913Z,10.87
2023-02-26T15:25:30.279Z,10.84
2023-02-26T15:27:58.546Z,10.66
2023-02-26T15:30:29.864Z,10.81
2023-02-26T15:33:06.298Z,10.77
2023-02-26T15:35:35.106Z,10.92
2023-02-26T15:38:04.390Z,10.88
2023-02-26T15:40:35.908Z,10.74
2023-02-26T15:43:08.524Z,10.97
2023-02-26T15:45:57.138Z,10.64
2023-02-26T15:48:32.794Z,11.19
2023-02-26T15:51:04.554Z,11.24
2023-02-26T15:53:46.087Z,11.20
2023-02-26T15:56:24.824Z,10.96
2023-02-26T15:58:58.388Z,11.03
2023-02-26T16:01:28.153Z,11.00
2023-02-26T16:04:08.583Z,11.06
2023-02-26T16:06:40.047Z,10.99
2023-02-26T16:09:15.800Z,10.68
2023-02-26T16:11:46.256Z,10.61
2023-02-26T16:14:22.062Z,10.79
2023-02-26T16:16:53.320Z,10.98
2023-02-26T16:19:33.925Z,10.89
2023-02-26T16:22:08.149Z,11.06
2023-02-26T16:24:36.006Z,10.84
2023-02-26T16:27:09.029Z,11.00
2023-02-26T16:29:37.966Z,10.81
2023-02-26T16:32:12.086Z,10.91
2023-02-26T16:34:44.826Z,11.20
2023-02-26T16:37:34.097Z,10.64
2023-02-26T16:40:16.189Z,10.88
2023-02-26T16:42:53.359Z,10.92
2023-02-26T16:45:36.274Z,10.70
2023-02-26T16:48:14.734Z,10.84
2023-02-26T16:50:43.278Z,10.61
2023-02-26T16:53:18.747Z,10.73
2023-02-26T16:55:52.358Z,10.79
2023-02-26T16:58:23.099Z,10.70
2023-02-26T17:01:01.831Z,10.59
2023-02-26T17:03:30.659Z,10.49
2023-02-26T17:06:03.234Z,10.45
2023-02-26T17:08:43.227Z,10.60
2023-02-26T17:11:21.923Z,10.51
2023-02-26T17:14:25.522Z,10.74
2023-02-26T17:16:53.726Z,10.56
2023-02-26T17:19:22.347Z,10.55
2023-02-26T17:21:54.529Z,10.50
2023-02-26T17:24:36.116Z,10.41
2023-02-26T17:27:05.680Z,10.22
2023-02-26T17:29:37.701Z,10.34
2023-02-26T17:32:07.798Z,10.22
2023-02-26T17:34:36.217Z,10.48
2023-02-26T17:37:07.835Z,10.31
2023-02-26T17:39:36.132Z,10.34
2023-02-26T17:42:04.191Z,10.35
2023-02-26T17:44:32.374Z,10.39
2023-02-26T17:47:00.205Z,10.46
2023-02-26T17:49:28.340Z,10.44
2023-02-26T17:51:56.789Z,10.46
2023-02-26T17:54:24.931Z,10.43
2023-02-26T17:56:52.789Z,10.42
2023-02-26T17:59:20.946Z,10.48
2023-02-26T18:01:48.705Z,10.32
2023-02-26T18:04:17.022Z,10.37
2023-02-26T18:06:45.266Z,10.40
2023-02-26T18:09:13.836Z,10.30
2023-02-26T18:11:42.220Z,10.42
2023-02-26T18:14:11.212Z,10.35
2023-02-26T18:16:41.663Z,10.43
2023-02-26T18:19:14.105Z,10.39
2023-02-26T18:21:41.832Z,10.37
2023-02-26T18:24:10.078Z,10.54
2023-02-26T18:26:37.836Z,10.42
2023-02-26T18:29:06.167Z,10.47
2023-02-26T18:31:35.416Z,10.36
2023-02-26T18:34:04.368Z,10.42
2023-02-26T18:36:35.779Z,10.43
2023-02-26T18:39:06.319Z,10.51
2023-02-26T18:41:34.955Z,10.46
2023-02-26T18:44:03.056Z,10.52
2023-02-26T18:46:30.814Z,10.48
2023-02-26T18:48:58.966Z,10.68
2023-02-26T18:51:27.428Z,10.44
2023-02-26T18:53:55.704Z,10.32
2023-02-26T18:56:23.456Z,10.34
2023-02-26T18:58:51.545Z,10.17
2023-02-26T19:01:19.516Z,10.22
2023-02-26T19:03:47.565Z,10.06
2023-02-26T19:06:15.480Z,10.12
2023-02-26T19:08:43.643Z,10.19
2023-02-26T19:11:11.422Z,10.22
2023-02-26T19:13:39.611Z,10.38
2023-02-26T19:16:07.693Z,10.18
2023-02-26T19:18:35.794Z,10.31
2023-02-26T19:21:06.031Z,10.15
2023-02-26T19:23:34.133Z,10.22
2023-02-26T19:26:01.921Z,10.16
2023-02-26T19:28:30.108Z,10.26
2023-02-26T19:30:57.969Z,10.25
2023-02-26T19:33:26.256Z,10.11
2023-02-26T19:35:54.240Z,10.04
2023-02-26T19:38:23.647Z,9.94
2023-02-26T19:40:51.524Z,9.97
2023-02-26T19:43:19.621Z,9.93
2023-02-26T19:45:47.437Z,9.92
2023-02-26T19:48:15.616Z,10.03
2023-02-26T19:50:43.495Z,10.12
2023-02-26T19:53:11.750Z,10.26
2023-02-26T19:55:39.591Z,10.16
2023-02-26T19:58:07.796Z,10.20
2023-02-26T20:00:35.687Z,10.13
2023-02-26T20:03:04.242Z,9.95
2023-02-26T20:05:32.320Z,10.04
2023-02-26T20:08:00.494Z,9.92
2023-02-26T20:10:34.150Z,10.02
2023-02-26T20:13:09.792Z,9.95
2023-02-26T20:15:40.256Z,9.95
2023-02-26T20:18:10.217Z,9.80
2023-02-26T20:20:46.514Z,9.81
2023-02-26T20:23:24.581Z,9.72
2023-02-26T20:25:59.829Z,9.95
2023-02-26T20:28:35.906Z,9.90
2023-02-26T20:31:10.857Z,10.06
2023-02-26T20:33:42.342Z,9.92
2023-02-26T20:36:13.672Z,9.75
2023-02-26T20:38:44.665Z,9.89
2023-02-26T20:41:16.572Z,9.87
2023-02-26T20:43:46.383Z,9.99
2023-02-26T20:46:14.632Z,9.81
2023-02-26T20:48:44.426Z,9.95
2023-02-26T20:51:14.700Z,9.71
2023-02-26T20:53:46.018Z,9.64
2023-02-26T20:56:16.251Z,9.95
2023-02-26T20:58:45.363Z,9.90
2023-02-26T21:01:13.813Z,9.94
2023-02-26T21:03:42.543Z,9.70
2023-02-26T21:06:12.051Z,9.89
2023-02-26T21:08:40.227Z,9.98
2023-02-26T21:11:08.477Z,9.93
2023-02-26T21:13:36.867Z,9.91
2023-02-26T21:16:05.052Z,9.77
2023-02-26T21:18:34.499Z,9.75
2023-02-26T21:21:05.158Z,9.74
2023-02-26T21:23:33.895Z,9.84
2023-02-26T21:26:01.715Z,9.72
2023-02-26T21:28:29.982Z,9.61
2023-02-26T21:30:57.875Z,9.68
2023-02-26T21:33:26.293Z,9.67
2023-02-26T21:35:54.183Z,9.66
2023-02-26T21:38:22.428Z,9.72
2023-02-26T21:40:50.432Z,9.75
2023-02-26T21:43:18.590Z,9.70
2023-02-26T21:45:48.704Z,9.84
2023-02-26T21:48:17.460Z,9.75
2023-02-26T21:50:47.611Z,9.85
2023-02-26T21:53:15.937Z,9.70
2023-02-26T21:55:43.938Z,9.60
2023-02-26T21:58:12.241Z,9.71
2023-02-26T22:00:40.036Z,9.73
2023-02-26T22:03:08.390Z,9.98
2023-02-26T22:05:36.218Z,9.70
2023-02-26T22:08:04.336Z,9.72
2023-02-26T22:10:32.196Z,9.71
2023-02-26T22:13:00.275Z,9.72
2023-02-26T22:15:28.171Z,9.63
2023-02-26T22:17:56.595Z,9.82
2023-02-26T22:20:24.678Z,9.78
2023-02-26T22:22:53.221Z,9.92
2023-02-26T22:25:21.020Z,9.70
2023-02-26T22:27:49.330Z,9.67
2023-02-26T22:30:17.121Z,9.61
2023-02-26T22:32:46.914Z,9.61
2023-02-26T22:35:15.622Z,9.55
2023-02-26T22:37:44.493Z,9.61
2023-02-26T22:40:14.077Z,9.54
2023-02-26T22:42:45.380Z,9.60
2023-02-26T22:45:17.285Z,9.47
2023-02-26T22:47:46.576Z,9.40
2023-02-26T22:50:16.046Z,9.49
2023-02-26T22:52:44.598Z,9.55
2023-02-26T22:55:13.081Z,9.51
2023-02-26T22:57:41.659Z,9.55
2023-02-26T23:00:15.269Z,9.63
2023-02-26T23:02:43.567Z,9.49
2023-02-26T23:05:11.548Z,9.50
2023-02-26T23:07:40.644Z,9.48
2023-02-26T23:10:11.629Z,9.55
2023-02-26T23:12:39.746Z,9.34
2023-02-26T23:15:09.340Z,9.30
2023-02-26T23:17:37.970Z,9.45
2023-02-26T23:20:10.241Z,9.56
2023-02-26T23:22:38.857Z,9.48
2023-02-26T23:25:06.900Z,9.53
2023-02-26T23:27:35.090Z,9.49
2023-02-26T23:30:03.212Z,9.66
2023-02-26T23:32:32.042Z,9.43
2023-02-26T23:34:59.850Z,9.56
2023-02-26T23:37:28.230Z,9.24
2023-02-26T23:39:56.276Z,9.45
2023-02-26T23:42:24.319Z,9.53
2023-02-26T23:44:52.030Z,9.53
2023-02-26T23:47:20.240Z,9.50
2023-02-26T23:49:47.941Z,9.60
2023-02-26T23:52:17.024Z,9.42
2023-02-26T23:54:44.802Z,9.55
2023-02-26T23:57:12.884Z,9.43
2023-02-26T23:59:40.610Z,9.57
